PROFILE

 METAR AND TAF INFORMATION
ADDS - METARS form results

(0054 UTC 20 February 2020)
http://aviationweather.gov/metar/data/
 
MHRO 200000Z 06008KT 9999 FEW024 28/23 Q1014 A2995 NOSIG
TAF MHRO 192230Z 2000/2024 07015KT 9999 FEW024 TX29/2019Z TN26/2012Z BECMG 2003/2005 SCT024 SCT080 PROB30 TEMPO 2009/2015 6000 -RA SCT020TCU BKN080 BECMG 2015/2017 9999 NSW SCT024 

 AIRPORT MAP

 RUNWAY INFORMATION
Runway 07 Runway length 7349 ft Runway width 148 ft
Runway elevation 9 ft Runway displaced threshold 200 ft Runway heading 66
Runway 25 Runway length 7349 ft Runway width 148 ft
Runway elevation 17 ft Runway displaced threshold 0 ft Runway heading 246

 AIRPORT FREQUENCIES
Type GND Name GND Frequency 121.6 MHZ
Type TWR Name ROATAN TWR Frequency 118.1 MHZ

 AIRPORT NEAR NAVIGATION AIDS
Type VOR-DME Name Roatan Frequency 113800 KHZ
Type NDB Name Roatan Frequency 301 KHZ